• Join FlightAware (Why Join?)
  • Login
  • US Flag 
02:11AM EDT


 

Airport Tracker/Info


-or-


 

Live Flight TrackerFlight Track Log ✈ DAL3673 ✈ 24-Apr-2013 ✈ KMSP - KLSE

Flight Track Log - Related Links

Times and Time Zones

All times are in EDT time to prevent confusion due to time zone crossing. See the DAL3673 flight status page for this flight to view local times or setup timezone preferences in your user account.

Time Position Orientation Groundspeed Altitude Reporting Facility
EDT Latitude Longitude Course Direction KTS MPH feet Rate Location/Type
03:41PM 44.8519 -93.2303 119° Southeast 145 167 2,200  Level FAA TRACON SMA TRACON (SMA)
03:42PM 44.8397 -93.2244 161° South 148 170 2,800 2,100 Climbing FAA TRACON SMA TRACON (SMA)
03:42PM 44.8203 -93.2169 165° South 179 206 3,600 2,400 Climbing FAA TRACON SMA TRACON (SMA)
03:42PM 44.8042 -93.2108 165° South 194 223 4,400 1,800 Climbing FAA TRACON SMA TRACON (SMA)
03:43PM 44.7858 -93.2042 166° South 214 246 4,800 1,800 Climbing FAA TRACON SMA TRACON (SMA)
03:43PM 44.7656 -93.1775 137° Southeast 260 299 5,600 2,520 Climbing FAA TRACON SMA TRACON (SMA)
03:43PM 44.7511 -93.1508 127° Southeast 277 319 6,500 2,700 Climbing FAA TRACON SMA TRACON (SMA)
03:44PM 44.7224 -92.9000 139° Southeast  Level Estimated
03:44PM 44.7358 -93.1236 128° Southeast 286 329 7,400  Level FAA TRACON SMA TRACON (SMA)
03:44PM 44.7167 -93.0889 128° Southeast 291 335 8,700 3,120 Climbing FAA TRACON SMA TRACON (SMA)
03:44PM 44.7011 -93.0611 128° Southeast 293 337 9,500 2,400 Climbing FAA TRACON SMA TRACON (SMA)
03:45PM 44.6319 -92.8709 167° South  Level FlightAware Approximate
03:45PM 44.6847 -93.0328 129° Southeast 300 345 10,300  Level FAA TRACON SMA TRACON (SMA)
03:45PM 44.6631 -92.9956 129° Southeast 316 364 10,800 1,020 Climbing FAA TRACON SMA TRACON (SMA)
03:45PM 44.6447 -92.9633 129° Southeast 336 387 11,000 120 Climbing FAA TRACON SMA TRACON (SMA)
03:46PM 44.5820 -92.7610 141° Southeast  Level Estimated
03:46PM 44.6253 -92.9303 130° Southeast 352 405 10,900  Level FAA TRACON SMA TRACON (SMA)
03:46PM 44.6011 -92.8881 129° Southeast 361 415 10,900 120 Level FAA TRACON SMA TRACON (SMA)
03:46PM 44.5814 -92.8544 129° Southeast 364 419 11,000  Climbing FAA TRACON SMA TRACON (SMA)
03:47PM 44.5320 -92.6513 119° Southeast  Level Estimated
03:47PM 44.5617 -92.8194 128° Southeast 366 421 10,900  Level FAA TRACON SMA TRACON (SMA)
03:47PM 44.5367 -92.7769 130° Southeast 366 421 10,900  Level FAA TRACON SMA TRACON (SMA)
03:47PM 44.5181 -92.7431 128° Southeast 360 414 10,900  Level FAA TRACON SMA TRACON (SMA)
03:48PM 44.4992 -92.7103 129° Southeast 354 407 10,900  Level FAA TRACON SMA TRACON (SMA)
03:48PM 44.4758 -92.6692 128° Southeast 348 400 10,900  Level FAA TRACON SMA TRACON (SMA)
03:48PM 44.4569 -92.6381 130° Southeast 344 396 10,900  Level FAA TRACON SMA TRACON (SMA)
03:49PM 44.4389 -92.6061 128° Southeast 340 391 10,900 120 Level FAA TRACON SMA TRACON (SMA)
03:49PM 44.4208 -92.5731 127° Southeast 344 396 11,000  Climbing FAA TRACON SMA TRACON (SMA)
03:49PM 44.3967 -92.5331 130° Southeast 348 400 10,900 -180 Descending FAA TRACON SMA TRACON (SMA)
03:50PM 44.3781 -92.4997 128° Southeast 353 406 10,900  Level FAA TRACON SMA TRACON (SMA)
03:50PM 44.3536 -92.4586 130° Southeast 356 410 10,900  Level FAA TRACON SMA TRACON (SMA)
03:50PM 44.3361 -92.4233 125° Southeast 358 412 10,900  Level FAA TRACON SMA TRACON (SMA)
03:51PM 44.3217 -92.3844 117° Southeast 361 415 10,900  Level FAA TRACON SMA TRACON (SMA)
03:51PM 44.3019 -92.3386 121° Southeast 359 413 10,900  Level FAA TRACON SMA TRACON (SMA)
03:51PM 44.2869 -92.3019 120° Southeast 356 410 10,900  Level FAA TRACON SMA TRACON (SMA)
03:52PM 44.2556 -92.2300 121° Southeast 352 405 10,900  Level FAA TRACON SMA TRACON (SMA)
03:52PM 44.2369 -92.1847 120° Southeast 351 404 10,900 60 Level FAA TRACON SMA TRACON (SMA)
03:53PM 44.1847 -92.0897 127° Southeast 354 407 11,000  Climbing Minneapolis Center
03:54PM 44.1325 -91.9694 121° Southeast 362 417 11,000 -300 Level Minneapolis Center
03:55PM 44.0764 -91.8406 121° Southeast 363 418 10,500 -1,020 Descending Minneapolis Center
03:56PM 44.0319 -91.7383 121° Southeast 312 359 9,000 -2,100 Descending Minneapolis Center
03:57PM 43.9875 -91.6375 121° Southeast 290 334 6,200 -2,340 Descending Minneapolis Center
03:59PM 43.9475 -91.5467 121° Southeast 279 321 4,200 -1,080 Descending Minneapolis Center
04:00PM 43.9094 -91.4478 118° Southeast 274 315 4,000 -240 Descending Minneapolis Center